Wahpeton, MN

10:32 AM CST on December 12, 2019 (GMT -0600)
Stern

Weather History for KBWP - October, 2019

Change the Weather History Date:

Friday, October 4, 2019

  Actual Average (WUND) Record (WUND)
Temperature  
Mean Temperature 44 °F -  
Max Temperature 48 °F - - (-1)
Min Temperature 41 °F - - (-1)
Degree Days  
Heating Degree Days 20    
Moisture  
Dew Point 36 °F    
Average Humidity 75    
Maximum Humidity 87    
Minimum Humidity 66    
Precipitation  
Precipitation 0.00 in - - ()
Sea Level Pressure  
Sea Level Pressure 30.29 in    
Wind  
Wind Speed 8 mph ()    
Max Wind Speed 20 mph    
Max Gust Speed 28 mph    
Visibility 10.0 miles    
Events      
Averages and records for this station are not official NWS values.
T = Trace of Precipitation, MM = Missing Value Source: Averaged Metar Reports

Daily Weather History Graph

Daily Weather History Graph

Search for Another Location

Airport or City:

Astronomy

Oct. 04, 2019 Rise Set
Actual Time 7:28 AM CDT 7:00 PM CDT
Civil Twilight 6:58 AM CDT 7:30 PM CDT
Nautical Twilight 6:23 AM CDT 8:05 PM CDT
Astronomical Twilight 5:48 AM CDT 8:40 PM CDT
Moon 2:20 PM CDT (10/4) 11:12 PM CDT (10/4)
Length of Visible Light 12h 32m
Length of Day
11h 32m
Waxing Crescent, 40% of the Moon is Illuminated
Oct 4
Waxing Crescent
Oct 5
First Quarter
Oct 13
Full
Oct 21
Last Quarter
Oct 27
New

Hourly Weather History & Observations

Time (CDT) Temp. Windchill Dew Point Humidity Pressure Visibility Wind Dir Wind Speed Gust Speed Precip Events Conditions
12:15 AM 41.0 °F - 35.6 °F 81% 30.41 in 10.0 mi Calm Calm - N/A   Unknown
12:35 AM 41.0 °F 39.0 °F 35.6 °F 81% 30.40 in 10.0 mi East 3.5 mph - N/A   Unknown
12:55 AM 41.0 °F 37.1 °F 33.8 °F 76% 30.41 in 10.0 mi ESE 5.8 mph - N/A   Unknown
1:15 AM 41.0 °F 38.0 °F 33.8 °F 76% 30.41 in 10.0 mi ESE 4.6 mph - N/A   Unknown
1:35 AM 41.0 °F 39.0 °F 33.8 °F 76% 30.41 in 10.0 mi ESE 3.5 mph - N/A   Unknown
1:55 AM 41.0 °F - 33.8 °F 76% 30.42 in 10.0 mi Calm Calm - N/A   Unknown
2:15 AM 41.0 °F - 35.6 °F 81% 30.42 in 10.0 mi Calm Calm - N/A   Unknown
2:35 AM 41.0 °F - 35.6 °F 81% 30.41 in 10.0 mi Calm Calm - N/A   Unknown
2:55 AM 41.0 °F 39.0 °F 35.6 °F 81% 30.41 in 10.0 mi SE 3.5 mph - N/A   Unknown
3:15 AM 41.0 °F 37.1 °F 33.8 °F 76% 30.41 in 10.0 mi SSE 5.8 mph - N/A   Unknown
3:35 AM 41.0 °F 37.1 °F 33.8 °F 76% 30.41 in 10.0 mi SE 5.8 mph - N/A   Unknown
3:55 AM 41.0 °F 39.0 °F 33.8 °F 76% 30.41 in 10.0 mi SE 3.5 mph - N/A   Unknown
4:15 AM 41.0 °F - 33.8 °F 76% 30.41 in 10.0 mi Calm Calm - N/A   Unknown
4:35 AM 41.0 °F 39.0 °F 33.8 °F 76% 30.41 in 10.0 mi SSE 3.5 mph - N/A   Unknown
4:55 AM 41.0 °F 39.0 °F 35.6 °F 81% 30.41 in 10.0 mi SSE 3.5 mph - N/A   Unknown
5:15 AM 41.0 °F 37.1 °F 35.6 °F 81% 30.41 in 10.0 mi SSE 5.8 mph - N/A   Unknown
5:35 AM 41.0 °F 37.1 °F 35.6 °F 81% 30.41 in 10.0 mi SSE 5.8 mph - N/A   Unknown
5:55 AM 41.0 °F 37.1 °F 35.6 °F 81% 30.41 in 10.0 mi SSE 5.8 mph - N/A   Unknown
6:15 AM 41.0 °F 36.4 °F 35.6 °F 81% 30.41 in 10.0 mi SSE 6.9 mph - N/A   Unknown
6:35 AM 41.0 °F 36.4 °F 35.6 °F 81% 30.41 in 10.0 mi SSE 6.9 mph - N/A   Unknown
6:55 AM 41.0 °F 37.1 °F 35.6 °F 81% 30.41 in 10.0 mi SSE 5.8 mph - N/A   Unknown
7:15 AM 41.0 °F 36.4 °F 35.6 °F 81% 30.41 in 10.0 mi SSE 6.9 mph - N/A   Unknown
7:35 AM 41.0 °F 35.2 °F 35.6 °F 81% 30.41 in 10.0 mi SSE 9.2 mph - N/A   Unknown
7:55 AM 42.8 °F 37.5 °F 35.6 °F 76% 30.41 in 10.0 mi SSE 9.2 mph - N/A   Unknown
8:15 AM 42.8 °F 37.0 °F 35.6 °F 76% 30.40 in 10.0 mi SSE 10.4 mph - N/A   Unknown
8:35 AM 42.8 °F 37.0 °F 33.8 °F 70% 30.40 in 10.0 mi SSE 10.4 mph - N/A   Unknown
8:55 AM 42.8 °F 37.0 °F 35.6 °F 76% 30.39 in 10.0 mi SSE 10.4 mph - N/A   Unknown
9:15 AM 42.8 °F 36.6 °F 35.6 °F 76% 30.39 in 10.0 mi SSE 11.5 mph - N/A   Unknown
9:35 AM 42.8 °F 34.5 °F 33.8 °F 70% 30.39 in 10.0 mi SSE 18.4 mph 21.9 mph N/A   Unknown
10:15 AM 42.8 °F 35.8 °F 35.6 °F 76% 30.39 in 10.0 mi SSE 13.8 mph 19.6 mph N/A   Unknown
10:35 AM 42.8 °F 36.2 °F 35.6 °F 76% 30.38 in 10.0 mi SSE 12.7 mph 20.7 mph N/A   Unknown
10:55 AM 44.6 °F 38.1 °F 35.6 °F 71% 30.37 in 10.0 mi SE 13.8 mph 17.3 mph N/A   Unknown
11:15 AM 44.6 °F 38.1 °F 35.6 °F 71% 30.37 in 10.0 mi SSE 13.8 mph 21.9 mph N/A   Unknown
11:35 AM 44.6 °F 38.1 °F 35.6 °F 71% 30.36 in 10.0 mi SSE 13.8 mph - N/A   Unknown
11:55 AM 44.6 °F 38.1 °F 35.6 °F 71% 30.36 in 10.0 mi SE 13.8 mph 21.9 mph N/A   Unknown
12:15 PM 44.6 °F 37.2 °F 35.6 °F 71% 30.35 in 10.0 mi SSE 17.3 mph 23.0 mph N/A   Unknown
12:35 PM 44.6 °F 38.4 °F 35.6 °F 71% 30.33 in 10.0 mi SSE 12.7 mph 18.4 mph N/A   Unknown
12:55 PM 44.6 °F 37.2 °F 35.6 °F 71% 30.33 in 10.0 mi SSE 17.3 mph 23.0 mph N/A   Unknown
1:15 PM 46.4 °F 39.5 °F 35.6 °F 66% 30.32 in 10.0 mi SSE 17.3 mph 25.3 mph N/A   Unknown
1:35 PM 46.4 °F 40.1 °F 35.6 °F 66% 30.31 in 10.0 mi SSE 15.0 mph 20.7 mph N/A   Unknown
1:55 PM 46.4 °F 39.8 °F 37.4 °F 71% 30.30 in 10.0 mi SSE 16.1 mph 23.0 mph N/A   Unknown
2:15 PM 46.4 °F 39.2 °F 35.6 °F 66% 30.28 in 10.0 mi SSE 18.4 mph 23.0 mph N/A   Unknown
2:35 PM 46.4 °F 39.2 °F 37.4 °F 71% 30.27 in 10.0 mi SSE 18.4 mph 21.9 mph N/A   Unknown
2:55 PM 48.2 °F - 37.4 °F 66% 30.26 in 10.0 mi SE 17.3 mph 20.7 mph N/A   Unknown
3:15 PM 46.4 °F 40.1 °F 37.4 °F 71% 30.25 in 10.0 mi SE 15.0 mph 20.7 mph N/A   Unknown
3:35 PM 46.4 °F 40.7 °F 37.4 °F 71% 30.23 in 10.0 mi SE 12.7 mph 25.3 mph N/A   Unknown
3:55 PM 46.4 °F 39.0 °F 37.4 °F 71% 30.22 in 10.0 mi SSE 19.6 mph 25.3 mph N/A   Unknown
4:15 PM 46.4 °F 39.0 °F 37.4 °F 71% 30.21 in 10.0 mi SSE 19.6 mph 26.5 mph N/A   Unknown
4:35 PM 48.2 °F - 37.4 °F 66% 30.21 in 10.0 mi SE 17.3 mph 26.5 mph N/A   Unknown
4:55 PM 46.4 °F 39.8 °F 37.4 °F 71% 30.19 in 10.0 mi SE 16.1 mph 24.2 mph N/A   Unknown
5:15 PM 46.4 °F 40.1 °F 35.6 °F 66% 30.19 in 10.0 mi SE 15.0 mph 21.9 mph N/A   Unknown
5:35 PM 46.4 °F 39.8 °F 35.6 °F 66% 30.19 in 10.0 mi SSE 16.1 mph - N/A   Unknown
5:55 PM 46.4 °F 39.8 °F 35.6 °F 66% 30.18 in 10.0 mi SE 16.1 mph 21.9 mph N/A   Unknown
6:15 PM 46.4 °F 39.8 °F 35.6 °F 66% 30.17 in 10.0 mi SE 16.1 mph 21.9 mph N/A   Unknown
6:35 PM 46.4 °F 39.8 °F 37.4 °F 71% 30.16 in 10.0 mi SE 16.1 mph - N/A   Unknown
6:55 PM 46.4 °F 40.4 °F 35.6 °F 66% 30.16 in 10.0 mi SE 13.8 mph 27.6 mph N/A   Unknown
7:15 PM 44.6 °F 37.4 °F 35.6 °F 71% 30.15 in 10.0 mi SE 16.1 mph 20.7 mph N/A   Unknown
7:35 PM 44.6 °F 37.4 °F 35.6 °F 71% 30.14 in 10.0 mi SE 16.1 mph 21.9 mph N/A   Unknown
7:55 PM 44.6 °F 38.1 °F 35.6 °F 71% 30.13 in 10.0 mi ESE 13.8 mph 21.9 mph N/A   Unknown
8:15 PM 44.6 °F 37.4 °F 35.6 °F 71% 30.13 in 10.0 mi SE 16.1 mph 25.3 mph N/A   Unknown
8:35 PM 44.6 °F 37.8 °F 35.6 °F 71% 30.13 in 10.0 mi SE 15.0 mph 23.0 mph N/A   Unknown
8:55 PM 44.6 °F 36.6 °F 35.6 °F 71% 30.12 in 10.0 mi ESE 19.6 mph 25.3 mph N/A   Unknown
9:15 PM 44.6 °F 38.4 °F 37.4 °F 76% 30.12 in 10.0 mi ESE 12.7 mph 18.4 mph N/A   Unknown
9:35 PM 44.6 °F 37.4 °F 37.4 °F 76% 30.11 in 10.0 mi ESE 16.1 mph 23.0 mph N/A   Unknown
9:55 PM 42.8 °F 36.2 °F 37.4 °F 81% 30.10 in 10.0 mi ESE 12.7 mph 19.6 mph N/A   Unknown
10:15 PM 42.8 °F 36.6 °F 37.4 °F 81% 30.10 in 10.0 mi SE 11.5 mph 16.1 mph N/A   Unknown
10:35 PM 42.8 °F 36.2 °F 39.2 °F 87% 30.09 in 7.0 mi SE 12.7 mph 18.4 mph N/A   Unknown
10:55 PM 42.8 °F 36.2 °F 39.2 °F 87% 30.08 in 10.0 mi ESE 12.7 mph 18.4 mph N/A   Unknown
11:15 PM 42.8 °F 35.8 °F 39.2 °F 87% 30.06 in 10.0 mi ESE 13.8 mph 19.6 mph N/A   Unknown
11:35 PM 42.8 °F 36.2 °F 39.2 °F 87% 30.05 in 10.0 mi SE 12.7 mph 20.7 mph N/A   Unknown
11:55 PM 44.6 °F 38.4 °F 41.0 °F 87% 30.04 in 10.0 mi SE 12.7 mph 21.9 mph N/A   Unknown